createdAt,value
2022-08-09T00:01:25.767Z,15.90
2022-08-09T00:04:34.863Z,15.90
2022-08-09T00:08:10.684Z,15.90
2022-08-09T00:22:18.246Z,15.70
2022-08-09T00:36:10.071Z,15.40
2022-08-09T01:00:56.748Z,15.10
2022-08-09T01:08:00.292Z,15.00
2022-08-09T01:30:03.745Z,14.80
2022-08-09T01:33:21.581Z,14.80
2022-08-09T01:39:41.779Z,14.70
2022-08-09T01:46:24.990Z,14.70
2022-08-09T01:49:38.854Z,14.70
2022-08-09T01:52:19.634Z,14.60
2022-08-09T02:09:41.836Z,14.40
2022-08-09T02:21:55.919Z,14.30
2022-08-09T02:24:32.615Z,14.20
2022-08-09T02:27:20.697Z,14.20
2022-08-09T02:45:54.840Z,14.00
2022-08-09T03:06:27.218Z,14.00
2022-08-09T03:08:56.850Z,14.00
2022-08-09T03:15:06.855Z,14.10
2022-08-09T03:17:40.311Z,14.10
2022-08-09T03:24:04.831Z,14.20
2022-08-09T03:26:44.943Z,14.00
2022-08-09T03:29:57.344Z,13.90
2022-08-09T03:36:41.375Z,13.80
2022-08-09T03:39:37.891Z,13.80
2022-08-09T03:42:13.731Z,13.70
2022-08-09T03:44:49.178Z,13.70
2022-08-09T03:47:46.847Z,13.60
2022-08-09T03:50:27.974Z,13.70
2022-08-09T03:53:06.371Z,13.60
2022-08-09T03:55:44.498Z,13.50
2022-08-09T03:59:01.237Z,13.50
2022-08-09T04:01:38.368Z,13.50
2022-08-09T04:04:15.473Z,13.50
2022-08-09T04:06:49.220Z,13.60
2022-08-09T04:09:48.074Z,13.60
2022-08-09T04:12:30.135Z,13.60
2022-08-09T04:15:11.676Z,13.60
2022-08-09T04:17:44.857Z,13.60
2022-08-09T04:20:25.309Z,13.60
2022-08-09T04:22:53.186Z,13.60
2022-08-09T04:25:30.781Z,13.70
2022-08-09T04:28:36.151Z,13.70
2022-08-09T04:31:37.709Z,13.70
2022-08-09T04:34:30.563Z,13.70
2022-08-09T04:37:02.403Z,13.80
2022-08-09T04:39:33.541Z,13.80
2022-08-09T04:46:56.964Z,14.00
2022-08-09T05:00:38.601Z,14.50
2022-08-09T05:07:20.020Z,14.70
2022-08-09T05:21:13.314Z,15.40
2022-08-09T05:28:39.636Z,15.80
2022-08-09T05:47:00.651Z,16.50
2022-08-09T05:53:11.745Z,16.80
2022-08-09T05:56:55.404Z,16.90
2022-08-09T05:59:57.475Z,17.00
2022-08-09T06:14:07.166Z,17.50
2022-08-09T06:28:45.504Z,17.90
2022-08-09T06:50:14.050Z,18.90
2022-08-09T06:56:20.721Z,19.30
2022-08-09T07:00:56.943Z,19.70
2022-08-09T07:02:30.770Z,19.80
2022-08-09T07:05:02.147Z,19.90
2022-08-09T07:18:27.060Z,20.90
2022-08-09T07:25:27.791Z,20.90
2022-08-09T07:53:16.934Z,22.30
2022-08-09T08:00:09.998Z,22.70
2022-08-09T08:07:27.155Z,23.20
2022-08-09T08:35:59.897Z,24.40
2022-08-09T08:50:33.806Z,27.40
2022-08-09T09:11:27.671Z,29.40
2022-08-09T09:17:10.585Z,28.80
2022-08-09T09:20:06.434Z,29.10
2022-08-09T09:26:26.129Z,29.90
2022-08-09T09:29:10.970Z,30.10
2022-08-09T09:32:06.349Z,30.40
2022-08-09T09:34:45.131Z,31.00
2022-08-09T09:37:31.635Z,30.60
2022-08-09T09:40:00.045Z,30.80
2022-08-09T09:42:30.880Z,30.30
2022-08-09T09:44:59.349Z,30.90
2022-08-09T09:47:28.477Z,30.90
2022-08-09T09:50:15.105Z,31.20
2022-08-09T09:52:54.622Z,30.60
2022-08-09T09:55:28.378Z,30.90
2022-08-09T09:58:16.498Z,30.90
2022-08-09T10:00:55.505Z,30.80
2022-08-09T10:03:38.488Z,30.40
2022-08-09T10:06:07.079Z,31.00
2022-08-09T10:08:42.515Z,31.40
2022-08-09T10:12:00.557Z,31.40
2022-08-09T10:14:33.015Z,31.10
2022-08-09T10:17:24.004Z,31.30
2022-08-09T10:19:58.773Z,31.70
2022-08-09T10:22:34.843Z,31.40
2022-08-09T10:25:12.219Z,32.00
2022-08-09T10:27:56.264Z,31.80
2022-08-09T10:34:04.377Z,32.10
2022-08-09T10:36:01.174Z,32.10
2022-08-09T10:38:54.834Z,32.30
2022-08-09T10:41:18.650Z,32.70
2022-08-09T10:43:59.785Z,32.70
2022-08-09T10:47:00.465Z,32.50
2022-08-09T10:49:50.017Z,33.00
2022-08-09T10:52:52.922Z,32.70
2022-08-09T10:55:25.328Z,32.30
2022-08-09T10:57:56.039Z,32.30
2022-08-09T11:00:37.569Z,31.90
2022-08-09T11:03:50.530Z,32.20
2022-08-09T11:06:18.549Z,32.30
2022-08-09T11:08:53.112Z,32.00
2022-08-09T11:11:23.000Z,32.70
2022-08-09T11:14:28.084Z,32.80
2022-08-09T11:16:57.300Z,32.70
2022-08-09T11:20:11.059Z,32.50
2022-08-09T11:22:57.358Z,32.70
2022-08-09T11:25:44.742Z,33.20
2022-08-09T11:28:38.336Z,33.10
2022-08-09T11:31:38.872Z,32.90
2022-08-09T11:34:35.093Z,33.00
2022-08-09T11:37:07.438Z,32.90
2022-08-09T11:40:08.357Z,32.50
2022-08-09T11:42:52.911Z,32.30
2022-08-09T11:45:22.472Z,32.90
2022-08-09T11:47:53.261Z,33.00
2022-08-09T11:50:53.893Z,32.60
2022-08-09T11:53:58.485Z,32.60
2022-08-09T11:56:02.535Z,32.10
2022-08-09T11:58:33.169Z,32.40
2022-08-09T12:01:08.865Z,32.60
2022-08-09T12:03:56.543Z,33.10
2022-08-09T12:06:32.346Z,33.30
2022-08-09T12:09:19.450Z,33.20
2022-08-09T12:12:03.261Z,33.70
2022-08-09T12:14:40.870Z,34.00
2022-08-09T12:17:27.531Z,34.10
2022-08-09T12:20:03.821Z,33.50
2022-08-09T12:22:31.359Z,33.50
2022-08-09T12:25:15.528Z,33.60
2022-08-09T12:29:11.081Z,33.10
2022-08-09T12:30:36.246Z,33.60
2022-08-09T12:33:06.208Z,34.00
2022-08-09T12:35:41.072Z,33.90
2022-08-09T12:38:29.730Z,34.30
2022-08-09T12:41:05.551Z,33.80
2022-08-09T12:44:06.181Z,33.30
2022-08-09T12:46:23.725Z,33.40
2022-08-09T12:48:52.887Z,33.80
2022-08-09T12:51:52.730Z,34.00
2022-08-09T12:54:08.424Z,34.00
2022-08-09T12:56:48.479Z,33.80
2022-08-09T12:59:20.647Z,34.20
2022-08-09T13:02:00.098Z,33.80
2022-08-09T13:04:36.231Z,34.10
2022-08-09T13:07:19.582Z,33.70
2022-08-09T13:10:05.427Z,34.30
2022-08-09T13:12:32.941Z,34.00
2022-08-09T13:15:08.964Z,33.90
2022-08-09T13:18:02.947Z,33.70
2022-08-09T13:20:37.699Z,33.80
2022-08-09T13:24:17.551Z,33.70
2022-08-09T13:26:49.823Z,33.20
2022-08-09T13:29:20.591Z,34.10
2022-08-09T13:32:17.188Z,34.20
2022-08-09T13:34:46.711Z,33.20
2022-08-09T13:37:51.002Z,32.70
2022-08-09T13:41:56.536Z,33.40
2022-08-09T13:42:50.925Z,33.00
2022-08-09T13:45:18.971Z,33.00
2022-08-09T13:47:51.272Z,33.10
2022-08-09T13:50:30.668Z,33.70
2022-08-09T13:52:58.903Z,33.80
2022-08-09T13:55:28.778Z,33.90
2022-08-09T13:57:59.359Z,34.10
2022-08-09T14:00:28.970Z,33.90
2022-08-09T14:03:03.061Z,33.70
2022-08-09T14:05:59.585Z,33.90
2022-08-09T14:08:19.931Z,33.90
2022-08-09T14:10:50.656Z,33.70
2022-08-09T14:13:27.681Z,33.50
2022-08-09T14:16:11.069Z,33.20
2022-08-09T14:18:45.097Z,32.50
2022-08-09T14:21:17.779Z,33.10
2022-08-09T14:23:54.672Z,33.10
2022-08-09T14:26:32.612Z,32.30
2022-08-09T14:30:04.320Z,32.20
2022-08-09T14:31:57.552Z,32.50
2022-08-09T14:34:32.555Z,32.30
2022-08-09T14:37:07.572Z,31.70
2022-08-09T14:39:48.907Z,32.00
2022-08-09T14:42:28.783Z,32.10
2022-08-09T14:45:16.334Z,31.90
2022-08-09T14:48:26.809Z,31.80
2022-08-09T14:51:00.656Z,32.10
2022-08-09T14:53:30.444Z,31.60
2022-08-09T14:55:59.122Z,31.60
2022-08-09T14:58:26.473Z,31.10
2022-08-09T15:01:13.953Z,30.70
2022-08-09T15:07:38.621Z,29.40
2022-08-09T15:15:49.718Z,27.50
2022-08-09T15:18:19.974Z,27.20
2022-08-09T15:21:54.979Z,27.00
2022-08-09T15:24:17.973Z,26.90
2022-08-09T15:26:53.121Z,26.90
2022-08-09T15:30:57.391Z,26.70
2022-08-09T15:32:48.225Z,26.60
2022-08-09T15:35:40.842Z,26.70
2022-08-09T15:42:28.588Z,26.40
2022-08-09T15:46:07.311Z,26.20
2022-08-09T15:57:00.665Z,26.00
2022-08-09T16:02:43.013Z,26.00
2022-08-09T16:05:16.620Z,26.00
2022-08-09T16:16:10.043Z,25.50
2022-08-09T16:30:06.368Z,25.10
2022-08-09T22:01:59.078Z,18.60
2022-08-09T22:15:37.043Z,18.00
2022-08-09T22:48:11.073Z,17.60
2022-08-09T23:27:18.808Z,17.40
